Elliot Chaparral Reserve, California Weather observations

Data are for 10 minute period ending at time listed.
 Day   Time   Solar   Ave.   Ave.  Ave.  Vector  Max.   Baro.   Total    
  of    of     Rad.   Air    Rel.  Wind   Wind   Wind  Press.  Precip.   
Year   Day            Temp.  Hum.  Speed  Dir.   Gust                    
2015   (PST)  Kw/m2    F      %     mph   deg.    mph    mb.     in.     
-------------------------------------------------------------------------
  30   13:00   0.23   61.1    70    3.3   334     6.5   983.0    0.00 
  30   13:10   0.19   61.3    68    3.7   330     6.4   982.9    0.00 
  30   13:20   0.19   61.4    67    3.9   340     6.3   982.9    0.00 
  30   13:30   0.16   61.5    66    3.0   345     5.8   982.7    0.00 
  30   13:40   0.13   61.5    66    3.7   346     5.2   982.6    0.00 
  30   13:50   0.14   61.5    66    2.6   339     4.7   982.5    0.00 
  30   14:00   0.16   61.9    66    2.3   342     4.1   982.5    0.00 
  30   14:10   0.16   61.9    65    4.2   276     6.8   982.5    0.00 
  30   14:20   0.18   61.8    65    3.2   277     5.2   982.4    0.00 
  30   14:30   0.18   62.2    64    4.3   280     6.6   982.5    0.00 
  30   14:40   0.15   62.0    63    3.3   274     5.5   982.5    0.00 
  30   14:50   0.12   61.9    64    4.5   268     6.7   982.5    0.00 
  30   15:00   0.10   61.4    66    5.5   260     6.7   982.5    0.00 
  30   15:10   0.09   61.1    67    4.8   270     6.6   982.5    0.00 
  30   15:20   0.08   61.1    66    4.6   263     6.5   982.5    0.00 
  30   15:30   0.08   61.0    66    5.3   288     7.5   982.5    0.00 
  30   15:40   0.08   60.6    66    6.6   272     8.4   982.4    0.00 
  30   15:50   0.08   60.4    68    6.6   301     8.5   982.4    0.00 
  30   16:00   0.08   60.1    68    7.2   292     9.9   982.3    0.00 
  30   16:10   0.08   59.8    70    6.3   286     7.5   982.4    0.00 
  30   16:20   0.08   59.7    70    5.4   292     7.0   982.4    0.00 
  30   16:30   0.06   59.7    68    4.6   315     6.1   982.4    0.00 
  30   16:40   0.04   59.5    66    4.1   313     5.8   982.4    0.00 
  30   16:50   0.03   59.2    66    3.8   304     5.0   982.4    0.00 
  30   17:00   0.01   59.0    67    3.5   301     5.0   982.4    0.00 
  30   17:10   0.00   58.7    68    2.1   304     3.9   982.3    0.00 
  30   17:20   0.00   58.7    68    2.2   300     2.9   982.3    0.00 
  30   17:30   0.00   58.6    69    2.3   297     2.9   982.3    0.00 
  30   17:40   0.00   58.4    69    1.9   304     2.7   982.3    0.00 
  30   17:50   0.00   58.4    69    2.1   302     2.6   982.3    0.00 
  30   18:00   0.00   58.4    69    1.5   312     2.3   982.5    0.00 
  30   18:10   0.00   58.3    70    2.1   304     2.7   982.6    0.00 
  30   18:20   0.00   58.2    71    1.9   310     2.1   982.7    0.00 
  30   18:30   0.00   58.2    70    1.7   322     2.3   982.7    0.00 
  30   18:40   0.00   58.2    70    1.4   325     1.8   982.7    0.00 
  30   18:50   0.00   58.3    69    0.5   325     1.5   982.8    0.00 
  30   19:00   0.00   58.3    68    0.8   284     2.4   982.8    0.00 
  30   19:10   0.00   58.2    69    2.2   286     2.9   982.9    0.00 
  30   19:20   0.00   58.0    70    1.4   263     2.1   982.9    0.00 
  30   19:30   0.00   57.7    71    0.2   246     1.1   982.9    0.00 
  30   19:40   0.00   57.3    72    0.1   246     0.6   983.0    0.00 
  30   19:50   0.00   57.3    72    0.1   246     0.7   983.0    0.00 
  30   20:00   0.00   56.7    73    2.8   120     5.7   982.8    0.00 
  30   20:10   0.00   55.8    76    5.3   115     6.4   982.8    0.00 
  30   20:20   0.00   55.6    76    4.2   116     5.8   982.8    0.00 
  30   20:30   0.00   55.9    75    4.2   132     5.5   982.8    0.00 
  30   20:40   0.00   55.7    76    4.3   132     5.3   982.8    0.00 
  30   20:50   0.00   55.6    76    4.5   128     5.3   982.8    0.00 
  30   21:00   0.00   55.3    77    4.8   144     6.1   982.8    0.00 
  30   21:10   0.00   55.3    77    4.3   153     5.4   982.9    0.00 
  30   21:20   0.00   55.6    76    4.6   172     5.9   982.9    0.00 
  30   21:30   0.00   56.0    76    5.0   182     6.0   983.1    0.00 
  30   21:40   0.00   56.2    76    5.2   179     6.7   983.2    0.00 
  30   21:50   0.00   55.9    77    5.4   164     6.9   983.2    0.00 
  30   22:00   0.00   55.6    81    6.6   169     7.9   983.2    0.00 
  30   22:10   0.00   55.4    83    5.5   167     7.1   983.2    0.00 
  30   22:20   0.00   55.6    85    4.9   168     6.6   983.2    0.00 
  30   22:30   0.00   55.7    87    4.5   162     5.3   983.2    0.00 
  30   22:40   0.00   55.7    88    4.7   168     5.6   983.2    0.00 
  30   22:50   0.00   55.6    89    3.0   141     5.4   983.2    0.00 
  30   23:00   0.00   55.4    90    1.9   121     2.9   983.2    0.00 
  30   23:10   0.00   55.4    90    2.7   131     3.9   983.1    0.00 
  30   23:20   0.00   55.1    90    2.9   118     5.6   983.1    0.00 
  30   23:30   0.00   54.9    91    4.3   115     6.4   983.0    0.00 
  30   23:40   0.00   54.8    91    4.1   114     5.7   983.0    0.00 
  30   23:50   0.00   54.8    92    4.4   114     5.3   982.9    0.00 
  31    0:00   0.00   54.5    92    5.1   111     6.0   982.8    0.00 
  31    0:10   0.00   54.5    92    5.0   110     5.8   982.6    0.00 
  31    0:20   0.00   54.7    92    4.9   132     5.6   982.6    0.00 
  31    0:30   0.00   54.5    92    4.8   121     5.3   982.5    0.00 
  31    0:40   0.00   54.2    92    4.4   117     5.4   982.5    0.00 
  31    0:50   0.00   54.0    91    3.6   111     5.0   982.5    0.00 
  31    1:00   0.00   54.1    91    2.6   120     4.0   982.5    0.00 
  31    1:10   0.00   54.4    91    2.5   129     3.5   982.5    0.00 
  31    1:20   0.00   54.6    90    2.7   114     4.2   982.4    0.00 
  31    1:30   0.00   54.6    90    3.3   118     4.7   982.4    0.00 
  31    1:40   0.00   54.3    90    4.3   115     6.1   982.2    0.00 
  31    1:50   0.00   53.9    91    5.4   117     6.5   982.1    0.00 
  31    2:00   0.00   53.7    91    5.9   121     6.7   981.9    0.00 
  31    2:10   0.00   53.4    91    6.1   115     7.0   981.9    0.00 
  31    2:20   0.00   53.2    91    6.2   115     7.2   981.9    0.00 
  31    2:30   0.00   53.1    91    7.0   116     8.3   981.9    0.00 
  31    2:40   0.00   53.2    91    6.0   115     7.7   981.8    0.00 
  31    2:50   0.00   52.8    91    7.7   115     9.2   981.8    0.00 
  31    3:00   0.00   52.6    91    9.7   111    11.8   981.7    0.00 
  31    3:10   0.00   52.9    91    9.3   108    11.8   981.6    0.00 
  31    3:20   0.00   53.1    91    9.8   107    11.8   981.5    0.00 
  31    3:30   0.00   53.1    91    8.9   106    11.1   981.4    0.00 
  31    3:40   0.00   52.9    92    9.5   109    11.7   981.3    0.00 
  31    3:50   0.00   52.7    92    9.3   101    10.7   981.3    0.00 
  31    4:00   0.00   52.5    92    9.4   101    10.8   981.3    0.00 
  31    4:10   0.00   52.8    92    8.5   104    11.0   981.2    0.00 
  31    4:20   0.00   52.7    92    9.0   107    11.0   981.2    0.00 
  31    4:30   0.00   52.8    92    7.7    97     9.7   981.3    0.00 
  31    4:40   0.00   52.7    92    7.9    92     9.4   981.2    0.00 
  31    4:50   0.00   52.5    92    8.0    87     9.1   981.2    0.00 
  31    5:00   0.00   52.3    92    7.7    87     8.6   981.1    0.00 
  31    5:10   0.00   52.1    93    8.0    93     8.7   981.0    0.00 
  31    5:20   0.00   52.0    93    7.8    93     8.6   981.0    0.00 
  31    5:30   0.00   51.7    93    7.3    92     8.0   981.1    0.00 
  31    5:40   0.00   51.5    93    6.6    82     7.5   981.2    0.00 
  31    5:50   0.00   51.7    93    5.8    80     7.3   981.3    0.00 
  31    6:00   0.00   52.1    93    5.0    77     5.8   981.3    0.00 
  31    6:10   0.00   52.4    93    4.0    70     5.2   981.5    0.00 
  31    6:20   0.00   53.0    92    3.4    72     5.0   981.7    0.00 
  31    6:30   0.00   53.6    90    3.0    85     4.6   981.9    0.00 
  31    6:40   0.00   54.0    88    1.8   124     4.2   982.1    0.00 
  31    6:50   0.00   53.7    88    1.6   237     2.8   982.3    0.00 
  31    7:00   0.00   53.5    89    1.3   208     2.1   982.5    0.00 
  31    7:10   0.00   53.6    89    2.4   142     3.1   982.6    0.00 
  31    7:20   0.01   53.6    89    3.1   139     4.0   982.6    0.00 
  31    7:30   0.02   54.0    88    2.5   154     4.3   982.7    0.00 
  31    7:40   0.02   54.3    87    2.6   158     3.8   982.8    0.00 
  31    7:50   0.01   54.5    86    1.8   143     2.4   982.9    0.00 
  31    8:00   0.04   54.8    86    1.3   133     2.0   983.0    0.00 
  31    8:10   0.07   55.2    86    1.8   139     3.0   983.1    0.00 
  31    8:20   0.08   55.7    85    2.6   125     3.3   983.2    0.00 
  31    8:30   0.08   55.6    84    2.1   129     4.0   983.4    0.00 
  31    8:40   0.10   55.9    84    2.0   138     3.9   983.5    0.00 
  31    8:50   0.17   56.2    83    3.1   132     4.4   983.7    0.00 
  31    9:00   0.15   56.8    81    4.2   132     6.7   983.7    0.00 
  31    9:10   0.12   56.4    82    4.6   126     6.4   983.8    0.00 
  31    9:20   0.09   56.4    82    3.2   124     4.6   984.2    0.00 
  31    9:30   0.06   56.3    82    5.0   130     6.6   984.3    0.00 
  31    9:40   0.07   56.1    85    3.5   126     4.9   984.3    0.00 
  31    9:50   0.15   56.6    87    1.4   144     3.8   984.3    0.01 
  31   10:00   0.11   57.6    85    0.2   260     1.2   984.3    0.00 
  31   10:10   0.10   57.9    84    0.5   231     1.7   984.4    0.00 
  31   10:20   0.13   57.8    86    1.7   217     2.6   984.4    0.00 
  31   10:30   0.36   58.5    84    2.0   265     3.6   984.3    0.00 
  31   10:40   0.79   60.6    80    2.4   222     5.6   984.3    0.00 
  31   10:50   0.67   61.5    77    5.0   293     9.1   984.3    0.00 
  31   11:00   0.08   59.3    79    5.6   316     8.6   984.4    0.00 
  31   11:10   0.10   58.4    81    5.0   310     6.8   984.4    0.00 
  31   11:20   0.48   59.4    79    3.2   266     5.8   984.1    0.00 
  31   11:30   0.54   61.3    73    3.5   250     7.1   983.9    0.00 
  31   11:40   0.43   61.9    72    6.1   295    10.5   983.8    0.00 
  31   11:50   0.33   61.2    71    6.2   310     9.3   983.8    0.00 
  31   12:00   0.30   61.2    70    4.0   296     6.7   983.7    0.00 
  31   12:10   0.34   62.6    67    2.2   290     5.8   983.5    0.00 
  31   12:20   0.68   64.5    64    5.5   272    10.0   983.5    0.00 
  31   12:30   0.24   62.7    67    6.2   277     9.3   983.4    0.00 
  31   12:40   0.24   62.2    69    9.4   300    14.3   983.2    0.00 
  31   12:50   0.19   61.2    70    9.5   304    12.3   983.1    0.00 

Return to Elliot Chaparral Reserve graphs page.


Western Regional Climate Center,wrcc@dri.edu